Portada
METAR-TAF:

METAR-TAF

Aeroports :

Taylorville Municipal Airport

Taylorville, Illinois, Estats Units d'Amèrica

latitud: 39-32-03N, longitud: 089-19-40W, altitud: 190 m

Observació

L'informe es va fer fa 24 minuts, a les 04:15 UTC
Vent 6 kt del Oest/Sud-Oest
Temperatura 8°C
Humitat 57%
Pressió 1019 hPa
Visibilitat: 16.1 km
Cel clar

METAR: KTAZ 300415Z AUTO 25006KT 10SM CLR 08/00 A3009 RMK AO2 T00820000

Hora: 23:39 (04:39 UTC)


TAF: manca

Observacions i pronòstics meteorològics de més de 4000 aeroports (METAR i TAF).

Les estacions disponibles són els punts grocs i vermells al mapa.

Posi el ratolí al punt desitjat per veure el nom de l'estació.

Feu clic per veure les observacions i els pronòstics meteorològics.

Per canviar el mapa: feu clic els botons verds amb una creu de color negre per apropar; al botó verd amb un guió per allunyar la imatge; o en les fletxes verdes per a mapes adjacents.


METAR-TAF: